Terminal Aerodrome Forecast
Issued by NWS Pueblo, CO

Home | Current Version | Previous Version | Text Only | Print | Product List | Glossary On
Versions: 1 2 3 4 5 6 7 8 9 10 11 12 13 14 15 16 17 18 19 20 21 22 23 24 25 26 27 28 29 30 31 32 33 34
000
FTUS45 KPUB 302330
TAFCOS
TAF
KCOS 302330Z 3100/3124 VRB05KT P6SM SCT060 OVC090
     FM310600 35007KT P6SM OVC060
     FM311100 35006KT P6SM SCT020 OVC040
     FM311800 VRB06KT P6SM VCSH SCT020 OVC040=

USA.gov is the U.S. government's official web portal to all federal, state and local government web resources and services.